sensor_id;sensor_type;location;lat;lon;timestamp;P1;durP1;ratioP1;P2;durP2;ratioP2
52126;SDS011;38120;53.176;6.614;2023-04-03T00:00:42;2.27;;;1.10;;
52126;SDS011;38120;53.176;6.614;2023-04-03T00:03:07;1.63;;;0.70;;
52126;SDS011;38120;53.176;6.614;2023-04-03T00:05:33;5.00;;;1.47;;
52126;SDS011;38120;53.176;6.614;2023-04-03T00:07:59;2.53;;;1.00;;
52126;SDS011;38120;53.176;6.614;2023-04-03T00:10:27;3.22;;;0.80;;
52126;SDS011;38120;53.176;6.614;2023-04-03T00:12:53;2.70;;;0.93;;
52126;SDS011;38120;53.176;6.614;2023-04-03T00:15:19;1.55;;;0.65;;
52126;SDS011;38120;53.176;6.614;2023-04-03T00:17:44;2.25;;;0.85;;
52126;SDS011;38120;53.176;6.614;2023-04-03T00:20:10;3.00;;;0.97;;
52126;SDS011;38120;53.176;6.614;2023-04-03T00:22:36;4.13;;;1.30;;
52126;SDS011;38120;53.176;6.614;2023-04-03T00:25:03;3.50;;;1.00;;
52126;SDS011;38120;53.176;6.614;2023-04-03T00:32:23;2.92;;;1.13;;
52126;SDS011;38120;53.176;6.614;2023-04-03T00:34:48;2.63;;;1.10;;
52126;SDS011;38120;53.176;6.614;2023-04-03T00:37:14;1.55;;;0.80;;
52126;SDS011;38120;53.176;6.614;2023-04-03T00:39:40;4.67;;;1.00;;
52126;SDS011;38120;53.176;6.614;2023-04-03T00:42:06;2.60;;;1.17;;
52126;SDS011;38120;53.176;6.614;2023-04-03T00:47:02;4.40;;;1.70;;
52126;SDS011;38120;53.176;6.614;2023-04-03T00:49:30;2.42;;;0.80;;
52126;SDS011;38120;53.176;6.614;2023-04-03T00:51:56;4.47;;;1.10;;
52126;SDS011;38120;53.176;6.614;2023-04-03T00:54:23;2.55;;;1.27;;
52126;SDS011;38120;53.176;6.614;2023-04-03T00:56:51;3.38;;;1.20;;
52126;SDS011;38120;53.176;6.614;2023-04-03T00:59:20;3.17;;;1.00;;
52126;SDS011;38120;53.176;6.614;2023-04-03T01:01:51;1.38;;;0.80;;
52126;SDS011;38120;53.176;6.614;2023-04-03T01:04:40;5.20;;;1.42;;
52126;SDS011;38120;53.176;6.614;2023-04-03T01:09:39;5.00;;;1.30;;
52126;SDS011;38120;53.176;6.614;2023-04-03T01:14:39;3.30;;;1.15;;
52126;SDS011;38120;53.176;6.614;2023-04-03T01:17:21;1.60;;;0.90;;
52126;SDS011;38120;53.176;6.614;2023-04-03T01:25:44;2.70;;;1.10;;
52126;SDS011;38120;53.176;6.614;2023-04-03T01:28:28;3.85;;;1.23;;
52126;SDS011;38120;53.176;6.614;2023-04-03T01:30:59;3.90;;;1.23;;
52126;SDS011;38120;53.176;6.614;2023-04-03T01:33:35;4.82;;;1.40;;
52126;SDS011;38120;53.176;6.614;2023-04-03T01:36:02;2.83;;;1.20;;
52126;SDS011;38120;53.176;6.614;2023-04-03T01:40:55;4.22;;;1.27;;
52126;SDS011;38120;53.176;6.614;2023-04-03T01:43:21;3.67;;;1.77;;
52126;SDS011;38120;53.176;6.614;2023-04-03T01:45:46;2.57;;;1.13;;
52126;SDS011;38120;53.176;6.614;2023-04-03T01:48:14;3.90;;;1.25;;
52126;SDS011;38120;53.176;6.614;2023-04-03T01:50:40;3.70;;;1.45;;
52126;SDS011;38120;53.176;6.614;2023-04-03T01:53:06;3.45;;;1.38;;
52126;SDS011;38120;53.176;6.614;2023-04-03T01:55:32;4.20;;;1.43;;
52126;SDS011;38120;53.176;6.614;2023-04-03T01:57:58;5.93;;;1.23;;
52126;SDS011;38120;53.176;6.614;2023-04-03T02:00:23;3.10;;;1.73;;
52126;SDS011;38120;53.176;6.614;2023-04-03T02:02:49;4.45;;;1.48;;
52126;SDS011;38120;53.176;6.614;2023-04-03T02:05:15;5.67;;;1.40;;
52126;SDS011;38120;53.176;6.614;2023-04-03T02:07:41;3.70;;;1.35;;
52126;SDS011;38120;53.176;6.614;2023-04-03T02:10:07;4.83;;;1.67;;
52126;SDS011;38120;53.176;6.614;2023-04-03T02:12:33;3.05;;;1.30;;
52126;SDS011;38120;53.176;6.614;2023-04-03T02:15:01;3.08;;;1.42;;
52126;SDS011;38120;53.176;6.614;2023-04-03T02:17:29;4.30;;;1.67;;
52126;SDS011;38120;53.176;6.614;2023-04-03T02:19:55;2.97;;;1.30;;
52126;SDS011;38120;53.176;6.614;2023-04-03T02:22:21;7.10;;;1.40;;
52126;SDS011;38120;53.176;6.614;2023-04-03T02:24:47;4.23;;;1.43;;
52126;SDS011;38120;53.176;6.614;2023-04-03T02:27:12;5.32;;;1.58;;
52126;SDS011;38120;53.176;6.614;2023-04-03T02:29:38;3.77;;;1.67;;
52126;SDS011;38120;53.176;6.614;2023-04-03T02:32:04;4.47;;;1.53;;
52126;SDS011;38120;53.176;6.614;2023-04-03T02:34:30;2.92;;;1.08;;
52126;SDS011;38120;53.176;6.614;2023-04-03T02:36:56;4.37;;;1.63;;
52126;SDS011;38120;53.176;6.614;2023-04-03T02:39:21;3.33;;;1.30;;
52126;SDS011;38120;53.176;6.614;2023-04-03T02:41:47;3.97;;;1.60;;
52126;SDS011;38120;53.176;6.614;2023-04-03T02:44:14;4.32;;;1.35;;
52126;SDS011;38120;53.176;6.614;2023-04-03T02:49:07;4.95;;;1.38;;
52126;SDS011;38120;53.176;6.614;2023-04-03T02:51:33;5.00;;;2.17;;
52126;SDS011;38120;53.176;6.614;2023-04-03T02:53:58;3.70;;;1.40;;
52126;SDS011;38120;53.176;6.614;2023-04-03T02:56:24;3.72;;;1.30;;
52126;SDS011;38120;53.176;6.614;2023-04-03T02:58:51;3.72;;;1.25;;
52126;SDS011;38120;53.176;6.614;2023-04-03T03:01:18;3.83;;;1.30;;
52126;SDS011;38120;53.176;6.614;2023-04-03T03:03:44;5.53;;;1.75;;
52126;SDS011;38120;53.176;6.614;2023-04-03T03:06:11;2.70;;;1.10;;
52126;SDS011;38120;53.176;6.614;2023-04-03T03:08:38;5.40;;;1.63;;
52126;SDS011;38120;53.176;6.614;2023-04-03T03:11:05;5.35;;;1.58;;
52126;SDS011;38120;53.176;6.614;2023-04-03T03:13:31;3.42;;;1.42;;
52126;SDS011;38120;53.176;6.614;2023-04-03T03:15:57;3.70;;;1.60;;
52126;SDS011;38120;53.176;6.614;2023-04-03T03:18:23;6.72;;;2.28;;
52126;SDS011;38120;53.176;6.614;2023-04-03T03:20:53;3.60;;;1.95;;
52126;SDS011;38120;53.176;6.614;2023-04-03T03:23:20;5.00;;;2.00;;
52126;SDS011;38120;53.176;6.614;2023-04-03T03:25:47;5.78;;;2.42;;
52126;SDS011;38120;53.176;6.614;2023-04-03T03:28:13;4.38;;;2.10;;
52126;SDS011;38120;53.176;6.614;2023-04-03T03:30:42;4.55;;;1.63;;
52126;SDS011;38120;53.176;6.614;2023-04-03T03:33:07;6.70;;;2.27;;
52126;SDS011;38120;53.176;6.614;2023-04-03T03:35:33;7.97;;;1.97;;
52126;SDS011;38120;53.176;6.614;2023-04-03T03:38:05;6.32;;;1.30;;
52126;SDS011;38120;53.176;6.614;2023-04-03T03:40:31;4.30;;;1.83;;
52126;SDS011;38120;53.176;6.614;2023-04-03T03:42:56;5.07;;;1.60;;
52126;SDS011;38120;53.176;6.614;2023-04-03T03:45:22;7.87;;;2.03;;
52126;SDS011;38120;53.176;6.614;2023-04-03T03:47:48;5.00;;;1.60;;
52126;SDS011;38120;53.176;6.614;2023-04-03T03:50:13;4.30;;;2.20;;
52126;SDS011;38120;53.176;6.614;2023-04-03T03:52:39;4.77;;;1.47;;
52126;SDS011;38120;53.176;6.614;2023-04-03T03:55:05;5.78;;;2.17;;
52126;SDS011;38120;53.176;6.614;2023-04-03T03:57:31;5.63;;;2.17;;
52126;SDS011;38120;53.176;6.614;2023-04-03T03:59:57;5.50;;;1.90;;
52126;SDS011;38120;53.176;6.614;2023-04-03T04:02:22;3.90;;;1.60;;
52126;SDS011;38120;53.176;6.614;2023-04-03T04:04:48;5.17;;;1.70;;
52126;SDS011;38120;53.176;6.614;2023-04-03T04:07:14;6.35;;;1.92;;
52126;SDS011;38120;53.176;6.614;2023-04-03T04:09:40;6.13;;;2.55;;
52126;SDS011;38120;53.176;6.614;2023-04-03T04:12:06;7.13;;;2.10;;
52126;SDS011;38120;53.176;6.614;2023-04-03T04:14:31;3.93;;;1.77;;
52126;SDS011;38120;53.176;6.614;2023-04-03T04:16:57;4.70;;;1.80;;
52126;SDS011;38120;53.176;6.614;2023-04-03T04:19:23;3.67;;;2.40;;
52126;SDS011;38120;53.176;6.614;2023-04-03T04:21:49;4.63;;;2.17;;
52126;SDS011;38120;53.176;6.614;2023-04-03T04:24:15;4.05;;;1.98;;
52126;SDS011;38120;53.176;6.614;2023-04-03T04:26:40;4.20;;;2.07;;
52126;SDS011;38120;53.176;6.614;2023-04-03T04:29:08;8.10;;;2.35;;
52126;SDS011;38120;53.176;6.614;2023-04-03T04:31:35;7.75;;;2.40;;
52126;SDS011;38120;53.176;6.614;2023-04-03T04:34:00;5.15;;;2.15;;
52126;SDS011;38120;53.176;6.614;2023-04-03T04:36:26;8.37;;;2.20;;
52126;SDS011;38120;53.176;6.614;2023-04-03T04:38:52;4.43;;;2.57;;
52126;SDS011;38120;53.176;6.614;2023-04-03T04:41:20;5.57;;;2.38;;
52126;SDS011;38120;53.176;6.614;2023-04-03T04:46:13;9.23;;;2.50;;
52126;SDS011;38120;53.176;6.614;2023-04-03T04:48:39;7.10;;;2.20;;
52126;SDS011;38120;53.176;6.614;2023-04-03T04:51:05;12.18;;;3.28;;
52126;SDS011;38120;53.176;6.614;2023-04-03T04:53:31;4.80;;;2.40;;
52126;SDS011;38120;53.176;6.614;2023-04-03T04:55:56;4.03;;;2.27;;
52126;SDS011;38120;53.176;6.614;2023-04-03T04:58:22;6.87;;;2.60;;
52126;SDS011;38120;53.176;6.614;2023-04-03T05:00:48;5.90;;;2.50;;
52126;SDS011;38120;53.176;6.614;2023-04-03T05:03:13;10.77;;;2.60;;
52126;SDS011;38120;53.176;6.614;2023-04-03T05:05:39;10.77;;;2.70;;
52126;SDS011;38120;53.176;6.614;2023-04-03T05:08:05;6.23;;;2.53;;
52126;SDS011;38120;53.176;6.614;2023-04-03T05:10:33;5.85;;;2.55;;
52126;SDS011;38120;53.176;6.614;2023-04-03T05:12:59;7.22;;;2.80;;
52126;SDS011;38120;53.176;6.614;2023-04-03T05:15:25;6.57;;;2.90;;
52126;SDS011;38120;53.176;6.614;2023-04-03T05:17:51;9.83;;;3.03;;
52126;SDS011;38120;53.176;6.614;2023-04-03T05:20:22;9.38;;;2.50;;
52126;SDS011;38120;53.176;6.614;2023-04-03T05:22:48;5.23;;;2.27;;
52126;SDS011;38120;53.176;6.614;2023-04-03T05:25:13;5.67;;;2.93;;
52126;SDS011;38120;53.176;6.614;2023-04-03T05:27:39;6.30;;;3.08;;
52126;SDS011;38120;53.176;6.614;2023-04-03T05:30:05;4.93;;;2.60;;
52126;SDS011;38120;53.176;6.614;2023-04-03T05:32:31;5.63;;;2.80;;
52126;SDS011;38120;53.176;6.614;2023-04-03T05:34:58;7.50;;;3.13;;
52126;SDS011;38120;53.176;6.614;2023-04-03T05:37:24;7.77;;;2.87;;
52126;SDS011;38120;53.176;6.614;2023-04-03T05:39:50;7.13;;;2.53;;
52126;SDS011;38120;53.176;6.614;2023-04-03T05:42:16;10.73;;;2.63;;
52126;SDS011;38120;53.176;6.614;2023-04-03T05:44:41;7.13;;;2.53;;
52126;SDS011;38120;53.176;6.614;2023-04-03T05:47:07;4.80;;;2.38;;
52126;SDS011;38120;53.176;6.614;2023-04-03T05:49:33;6.73;;;2.47;;
52126;SDS011;38120;53.176;6.614;2023-04-03T05:51:59;5.18;;;2.70;;
52126;SDS011;38120;53.176;6.614;2023-04-03T05:54:27;11.93;;;2.53;;
52126;SDS011;38120;53.176;6.614;2023-04-03T05:56:54;6.20;;;2.70;;
52126;SDS011;38120;53.176;6.614;2023-04-03T05:59:20;6.95;;;2.70;;
52126;SDS011;38120;53.176;6.614;2023-04-03T06:01:46;5.57;;;2.83;;
52126;SDS011;38120;53.176;6.614;2023-04-03T06:04:16;6.88;;;2.63;;
52126;SDS011;38120;53.176;6.614;2023-04-03T06:06:42;4.83;;;2.40;;
52126;SDS011;38120;53.176;6.614;2023-04-03T06:09:15;7.13;;;2.58;;
52126;SDS011;38120;53.176;6.614;2023-04-03T06:11:41;5.32;;;2.97;;
52126;SDS011;38120;53.176;6.614;2023-04-03T06:14:07;6.65;;;2.70;;
52126;SDS011;38120;53.176;6.614;2023-04-03T06:16:34;7.75;;;3.50;;
52126;SDS011;38120;53.176;6.614;2023-04-03T06:18:59;9.40;;;3.67;;
52126;SDS011;38120;53.176;6.614;2023-04-03T06:21:25;7.00;;;3.08;;
52126;SDS011;38120;53.176;6.614;2023-04-03T06:23:54;5.88;;;2.90;;
52126;SDS011;38120;53.176;6.614;2023-04-03T06:26:20;6.63;;;3.08;;
52126;SDS011;38120;53.176;6.614;2023-04-03T06:28:46;5.87;;;2.40;;
52126;SDS011;38120;53.176;6.614;2023-04-03T06:31:11;7.67;;;2.90;;
52126;SDS011;38120;53.176;6.614;2023-04-03T06:33:37;5.93;;;2.67;;
52126;SDS011;38120;53.176;6.614;2023-04-03T06:36:03;8.63;;;2.47;;
52126;SDS011;38120;53.176;6.614;2023-04-03T06:38:30;6.85;;;2.40;;
52126;SDS011;38120;53.176;6.614;2023-04-03T06:40:58;8.02;;;2.72;;
52126;SDS011;38120;53.176;6.614;2023-04-03T06:43:25;6.70;;;3.15;;
52126;SDS011;38120;53.176;6.614;2023-04-03T06:45:51;3.92;;;2.42;;
52126;SDS011;38120;53.176;6.614;2023-04-03T06:48:17;10.63;;;3.13;;
52126;SDS011;38120;53.176;6.614;2023-04-03T06:50:43;6.50;;;2.80;;
52126;SDS011;38120;53.176;6.614;2023-04-03T06:53:09;7.78;;;2.97;;
52126;SDS011;38120;53.176;6.614;2023-04-03T06:55:37;5.68;;;2.53;;
52126;SDS011;38120;53.176;6.614;2023-04-03T06:58:03;10.20;;;2.88;;
52126;SDS011;38120;53.176;6.614;2023-04-03T07:00:29;5.05;;;2.85;;
52126;SDS011;38120;53.176;6.614;2023-04-03T07:02:56;9.77;;;3.10;;
52126;SDS011;38120;53.176;6.614;2023-04-03T07:05:22;9.02;;;2.65;;
52126;SDS011;38120;53.176;6.614;2023-04-03T07:07:49;5.00;;;2.60;;
52126;SDS011;38120;53.176;6.614;2023-04-03T07:10:15;8.43;;;2.78;;
52126;SDS011;38120;53.176;6.614;2023-04-03T07:12:41;5.10;;;2.85;;
52126;SDS011;38120;53.176;6.614;2023-04-03T07:15:07;8.60;;;3.00;;
52126;SDS011;38120;53.176;6.614;2023-04-03T07:17:33;4.32;;;2.53;;
52126;SDS011;38120;53.176;6.614;2023-04-03T07:19:59;13.77;;;4.28;;
52126;SDS011;38120;53.176;6.614;2023-04-03T07:22:25;5.18;;;2.50;;
52126;SDS011;38120;53.176;6.614;2023-04-03T07:24:51;8.03;;;2.70;;
52126;SDS011;38120;53.176;6.614;2023-04-03T07:27:17;10.33;;;3.57;;
52126;SDS011;38120;53.176;6.614;2023-04-03T07:29:43;8.23;;;3.13;;
52126;SDS011;38120;53.176;6.614;2023-04-03T07:32:09;8.77;;;2.65;;
52126;SDS011;38120;53.176;6.614;2023-04-03T07:34:36;6.13;;;2.80;;
52126;SDS011;38120;53.176;6.614;2023-04-03T07:37:02;8.57;;;3.42;;
52126;SDS011;38120;53.176;6.614;2023-04-03T07:39:28;12.82;;;3.45;;
52126;SDS011;38120;53.176;6.614;2023-04-03T07:41:54;10.90;;;3.15;;
52126;SDS011;38120;53.176;6.614;2023-04-03T07:44:23;4.55;;;1.98;;
52126;SDS011;38120;53.176;6.614;2023-04-03T07:46:49;5.72;;;2.17;;
52126;SDS011;38120;53.176;6.614;2023-04-03T07:49:15;9.27;;;2.90;;
52126;SDS011;38120;53.176;6.614;2023-04-03T07:51:43;8.20;;;2.80;;
52126;SDS011;38120;53.176;6.614;2023-04-03T07:54:09;6.85;;;2.65;;
52126;SDS011;38120;53.176;6.614;2023-04-03T07:56:35;9.85;;;2.70;;
52126;SDS011;38120;53.176;6.614;2023-04-03T07:59:01;9.00;;;2.42;;
52126;SDS011;38120;53.176;6.614;2023-04-03T08:01:38;6.18;;;1.92;;
52126;SDS011;38120;53.176;6.614;2023-04-03T08:04:04;6.63;;;2.20;;
52126;SDS011;38120;53.176;6.614;2023-04-03T08:06:30;3.95;;;1.80;;
52126;SDS011;38120;53.176;6.614;2023-04-03T08:08:58;9.27;;;2.20;;
52126;SDS011;38120;53.176;6.614;2023-04-03T08:11:24;6.10;;;1.55;;
52126;SDS011;38120;53.176;6.614;2023-04-03T08:13:51;5.80;;;2.03;;
52126;SDS011;38120;53.176;6.614;2023-04-03T08:16:18;5.80;;;1.40;;
52126;SDS011;38120;53.176;6.614;2023-04-03T08:18:47;4.70;;;2.33;;
52126;SDS011;38120;53.176;6.614;2023-04-03T08:21:13;3.97;;;1.58;;
52126;SDS011;38120;53.176;6.614;2023-04-03T08:23:40;2.95;;;1.38;;
52126;SDS011;38120;53.176;6.614;2023-04-03T08:26:10;5.50;;;1.77;;
52126;SDS011;38120;53.176;6.614;2023-04-03T08:28:38;4.20;;;1.60;;
52126;SDS011;38120;53.176;6.614;2023-04-03T08:31:06;4.05;;;1.75;;
52126;SDS011;38120;53.176;6.614;2023-04-03T08:33:33;5.38;;;1.50;;
52126;SDS011;38120;53.176;6.614;2023-04-03T08:36:02;4.95;;;1.92;;
52126;SDS011;38120;53.176;6.614;2023-04-03T08:38:29;5.22;;;1.77;;
52126;SDS011;38120;53.176;6.614;2023-04-03T08:41:02;7.83;;;2.30;;
52126;SDS011;38120;53.176;6.614;2023-04-03T08:43:46;4.95;;;1.90;;
52126;SDS011;38120;53.176;6.614;2023-04-03T08:46:24;3.72;;;1.75;;
52126;SDS011;38120;53.176;6.614;2023-04-03T08:49:03;4.47;;;1.92;;
52126;SDS011;38120;53.176;6.614;2023-04-03T08:51:32;5.88;;;1.67;;
52126;SDS011;38120;53.176;6.614;2023-04-03T08:54:03;7.13;;;1.60;;
52126;SDS011;38120;53.176;6.614;2023-04-03T08:56:33;5.43;;;2.10;;
52126;SDS011;38120;53.176;6.614;2023-04-03T09:04:02;4.97;;;1.60;;
52126;SDS011;38120;53.176;6.614;2023-04-03T09:06:33;7.78;;;2.30;;
52126;SDS011;38120;53.176;6.614;2023-04-03T09:11:55;4.03;;;1.80;;
52126;SDS011;38120;53.176;6.614;2023-04-03T09:14:49;5.65;;;1.38;;
52126;SDS011;38120;53.176;6.614;2023-04-03T09:23:26;5.15;;;1.30;;
52126;SDS011;38120;53.176;6.614;2023-04-03T09:26:06;5.63;;;1.67;;
52126;SDS011;38120;53.176;6.614;2023-04-03T09:28:38;2.65;;;1.27;;
52126;SDS011;38120;53.176;6.614;2023-04-03T09:33:52;6.10;;;1.58;;
52126;SDS011;38120;53.176;6.614;2023-04-03T09:39:20;2.25;;;0.88;;
52126;SDS011;38120;53.176;6.614;2023-04-03T09:44:34;3.33;;;1.30;;
52126;SDS011;38120;53.176;6.614;2023-04-03T09:47:18;5.03;;;1.30;;
52126;SDS011;38120;53.176;6.614;2023-04-03T09:49:49;1.77;;;0.80;;
52126;SDS011;38120;53.176;6.614;2023-04-03T09:52:25;2.57;;;1.20;;
52126;SDS011;38120;53.176;6.614;2023-04-03T09:54:51;2.38;;;1.10;;
52126;SDS011;38120;53.176;6.614;2023-04-03T09:57:17;1.38;;;0.90;;
52126;SDS011;38120;53.176;6.614;2023-04-03T10:04:56;3.90;;;1.23;;
52126;SDS011;38120;53.176;6.614;2023-04-03T10:07:26;3.58;;;1.20;;
52126;SDS011;38120;53.176;6.614;2023-04-03T10:10:22;7.00;;;2.00;;
52126;SDS011;38120;53.176;6.614;2023-04-03T10:13:03;4.13;;;1.58;;
52126;SDS011;38120;53.176;6.614;2023-04-03T10:15:33;2.85;;;1.08;;
52126;SDS011;38120;53.176;6.614;2023-04-03T10:24:44;6.30;;;1.15;;
52126;SDS011;38120;53.176;6.614;2023-04-03T10:26:57;1.80;;;0.90;;
52126;SDS011;38120;53.176;6.614;2023-04-03T10:29:40;2.42;;;1.13;;
52126;SDS011;38120;53.176;6.614;2023-04-03T10:51:52;4.70;;;1.08;;
52126;SDS011;38120;53.176;6.614;2023-04-03T10:54:26;2.72;;;0.90;;
52126;SDS011;38120;53.176;6.614;2023-04-03T10:57:06;3.40;;;0.90;;
52126;SDS011;38120;53.176;6.614;2023-04-03T10:59:45;1.30;;;0.80;;
52126;SDS011;38120;53.176;6.614;2023-04-03T11:05:28;2.55;;;1.02;;
52126;SDS011;38120;53.176;6.614;2023-04-03T11:11:24;2.20;;;0.70;;
52126;SDS011;38120;53.176;6.614;2023-04-03T11:14:15;1.88;;;0.77;;
52126;SDS011;38120;53.176;6.614;2023-04-03T11:17:08;0.80;;;0.60;;
52126;SDS011;38120;53.176;6.614;2023-04-03T11:22:53;1.58;;;0.50;;
52126;SDS011;38120;53.176;6.614;2023-04-03T11:25:26;3.08;;;1.08;;
52126;SDS011;38120;53.176;6.614;2023-04-03T11:28:01;2.72;;;1.02;;
52126;SDS011;38120;53.176;6.614;2023-04-03T11:33:44;6.47;;;1.58;;
52126;SDS011;38120;53.176;6.614;2023-04-03T11:36:39;3.53;;;0.80;;
52126;SDS011;38120;53.176;6.614;2023-04-03T11:39:34;3.10;;;1.00;;
52126;SDS011;38120;53.176;6.614;2023-04-03T11:42:15;9.40;;;1.02;;
52126;SDS011;38120;53.176;6.614;2023-04-03T11:44:49;3.30;;;0.80;;
52126;SDS011;38120;53.176;6.614;2023-04-03T11:50:30;2.28;;;1.08;;
52126;SDS011;38120;53.176;6.614;2023-04-03T11:52:59;4.03;;;0.90;;
52126;SDS011;38120;53.176;6.614;2023-04-03T12:29:12;4.47;;;0.93;;
52126;SDS011;38120;53.176;6.614;2023-04-03T12:31:42;2.42;;;0.93;;
52126;SDS011;38120;53.176;6.614;2023-04-03T12:37:24;2.35;;;0.70;;
52126;SDS011;38120;53.176;6.614;2023-04-03T12:48:28;2.63;;;0.85;;
52126;SDS011;38120;53.176;6.614;2023-04-03T12:50:56;2.03;;;0.88;;
52126;SDS011;38120;53.176;6.614;2023-04-03T12:53:33;2.70;;;1.00;;
52126;SDS011;38120;53.176;6.614;2023-04-03T12:58:47;2.38;;;1.02;;
52126;SDS011;38120;53.176;6.614;2023-04-03T13:01:18;3.88;;;1.00;;
52126;SDS011;38120;53.176;6.614;2023-04-03T13:03:54;2.15;;;1.02;;
52126;SDS011;38120;53.176;6.614;2023-04-03T13:08:49;1.88;;;0.80;;
52126;SDS011;38120;53.176;6.614;2023-04-03T13:11:17;3.35;;;0.95;;
52126;SDS011;38120;53.176;6.614;2023-04-03T13:16:26;1.45;;;0.80;;
52126;SDS011;38120;53.176;6.614;2023-04-03T13:18:52;2.38;;;1.05;;
52126;SDS011;38120;53.176;6.614;2023-04-03T13:21:19;2.05;;;1.10;;
52126;SDS011;38120;53.176;6.614;2023-04-03T13:24:04;1.98;;;0.95;;
52126;SDS011;38120;53.176;6.614;2023-04-03T13:26:31;5.47;;;1.02;;
52126;SDS011;38120;53.176;6.614;2023-04-03T13:29:05;2.40;;;1.13;;
52126;SDS011;38120;53.176;6.614;2023-04-03T13:31:36;2.13;;;0.70;;
52126;SDS011;38120;53.176;6.614;2023-04-03T13:34:06;2.97;;;0.90;;
52126;SDS011;38120;53.176;6.614;2023-04-03T13:36:42;1.13;;;0.70;;
52126;SDS011;38120;53.176;6.614;2023-04-03T13:41:42;5.78;;;1.25;;
52126;SDS011;38120;53.176;6.614;2023-04-03T13:46:48;2.20;;;0.88;;
52126;SDS011;38120;53.176;6.614;2023-04-03T13:49:27;2.22;;;1.13;;
52126;SDS011;38120;53.176;6.614;2023-04-03T13:51:59;2.10;;;0.93;;
52126;SDS011;38120;53.176;6.614;2023-04-03T13:54:34;2.00;;;0.90;;
52126;SDS011;38120;53.176;6.614;2023-04-03T13:57:03;2.75;;;1.05;;
52126;SDS011;38120;53.176;6.614;2023-04-03T13:59:38;4.38;;;0.77;;
52126;SDS011;38120;53.176;6.614;2023-04-03T14:04:31;3.08;;;1.40;;
52126;SDS011;38120;53.176;6.614;2023-04-03T14:07:13;3.65;;;0.93;;
52126;SDS011;38120;53.176;6.614;2023-04-03T14:09:41;2.70;;;0.98;;
52126;SDS011;38120;53.176;6.614;2023-04-03T14:12:30;3.10;;;0.80;;
52126;SDS011;38120;53.176;6.614;2023-04-03T14:15:01;1.63;;;0.85;;
52126;SDS011;38120;53.176;6.614;2023-04-03T14:17:37;5.20;;;1.02;;
52126;SDS011;38120;53.176;6.614;2023-04-03T14:20:04;3.15;;;0.77;;
52126;SDS011;38120;53.176;6.614;2023-04-03T14:22:31;2.33;;;1.02;;
52126;SDS011;38120;53.176;6.614;2023-04-03T14:24:57;3.60;;;1.13;;
52126;SDS011;38120;53.176;6.614;2023-04-03T14:27:25;5.95;;;1.20;;
52126;SDS011;38120;53.176;6.614;2023-04-03T14:29:54;4.05;;;1.17;;
52126;SDS011;38120;53.176;6.614;2023-04-03T14:32:21;8.05;;;0.80;;
52126;SDS011;38120;53.176;6.614;2023-04-03T14:34:49;2.15;;;1.10;;
52126;SDS011;38120;53.176;6.614;2023-04-03T14:37:20;3.40;;;1.02;;
52126;SDS011;38120;53.176;6.614;2023-04-03T14:39:49;3.60;;;1.42;;
52126;SDS011;38120;53.176;6.614;2023-04-03T14:45:12;2.88;;;1.05;;
52126;SDS011;38120;53.176;6.614;2023-04-03T14:50:07;2.30;;;0.90;;
52126;SDS011;38120;53.176;6.614;2023-04-03T14:52:38;4.57;;;0.70;;
52126;SDS011;38120;53.176;6.614;2023-04-03T14:55:04;5.00;;;1.10;;
52126;SDS011;38120;53.176;6.614;2023-04-03T14:57:31;3.67;;;1.40;;
52126;SDS011;38120;53.176;6.614;2023-04-03T14:59:57;1.88;;;0.70;;
52126;SDS011;38120;53.176;6.614;2023-04-03T15:02:28;1.80;;;0.88;;
52126;SDS011;38120;53.176;6.614;2023-04-03T15:04:56;5.82;;;1.10;;
52126;SDS011;38120;53.176;6.614;2023-04-03T15:07:23;2.63;;;0.88;;
52126;SDS011;38120;53.176;6.614;2023-04-03T15:09:51;2.05;;;0.82;;
52126;SDS011;38120;53.176;6.614;2023-04-03T15:12:17;3.30;;;1.05;;
52126;SDS011;38120;53.176;6.614;2023-04-03T15:14:43;2.30;;;0.90;;
52126;SDS011;38120;53.176;6.614;2023-04-03T15:17:20;3.25;;;1.10;;
52126;SDS011;38120;53.176;6.614;2023-04-03T15:19:47;1.90;;;0.93;;
52126;SDS011;38120;53.176;6.614;2023-04-03T15:22:18;3.15;;;1.13;;
52126;SDS011;38120;53.176;6.614;2023-04-03T15:24:45;6.15;;;1.00;;
52126;SDS011;38120;53.176;6.614;2023-04-03T15:27:11;2.95;;;1.02;;
52126;SDS011;38120;53.176;6.614;2023-04-03T15:29:39;3.20;;;1.05;;
52126;SDS011;38120;53.176;6.614;2023-04-03T15:32:06;4.43;;;1.13;;
52126;SDS011;38120;53.176;6.614;2023-04-03T15:34:32;6.03;;;1.08;;
52126;SDS011;38120;53.176;6.614;2023-04-03T15:36:58;3.28;;;1.38;;
52126;SDS011;38120;53.176;6.614;2023-04-03T15:39:24;4.77;;;1.17;;
52126;SDS011;38120;53.176;6.614;2023-04-03T15:41:50;4.05;;;1.20;;
52126;SDS011;38120;53.176;6.614;2023-04-03T15:44:19;4.28;;;1.25;;
52126;SDS011;38120;53.176;6.614;2023-04-03T15:46:46;1.92;;;1.00;;
52126;SDS011;38120;53.176;6.614;2023-04-03T15:49:14;1.42;;;0.63;;
52126;SDS011;38120;53.176;6.614;2023-04-03T15:51:40;4.97;;;1.13;;
52126;SDS011;38120;53.176;6.614;2023-04-03T15:54:06;1.25;;;0.60;;
52126;SDS011;38120;53.176;6.614;2023-04-03T15:56:31;2.67;;;0.55;;
52126;SDS011;38120;53.176;6.614;2023-04-03T15:58:57;2.37;;;0.67;;
52126;SDS011;38120;53.176;6.614;2023-04-03T16:01:23;5.15;;;0.90;;
52126;SDS011;38120;53.176;6.614;2023-04-03T16:03:49;2.60;;;0.70;;
52126;SDS011;38120;53.176;6.614;2023-04-03T16:08:42;3.00;;;0.70;;
52126;SDS011;38120;53.176;6.614;2023-04-03T16:11:08;2.88;;;0.70;;
52126;SDS011;38120;53.176;6.614;2023-04-03T16:13:34;2.50;;;0.80;;
52126;SDS011;38120;53.176;6.614;2023-04-03T16:16:00;2.95;;;1.40;;
52126;SDS011;38120;53.176;6.614;2023-04-03T16:20:53;5.68;;;0.80;;
52126;SDS011;38120;53.176;6.614;2023-04-03T16:25:45;4.10;;;1.55;;
52126;SDS011;38120;53.176;6.614;2023-04-03T16:28:12;1.48;;;0.70;;
52126;SDS011;38120;53.176;6.614;2023-04-03T16:30:42;1.52;;;0.75;;
52126;SDS011;38120;53.176;6.614;2023-04-03T16:33:12;2.90;;;1.35;;
52126;SDS011;38120;53.176;6.614;2023-04-03T16:35:38;2.20;;;1.00;;
52126;SDS011;38120;53.176;6.614;2023-04-03T16:38:04;2.92;;;0.98;;
52126;SDS011;38120;53.176;6.614;2023-04-03T16:40:30;1.85;;;0.68;;
52126;SDS011;38120;53.176;6.614;2023-04-03T16:42:58;2.20;;;0.63;;
52126;SDS011;38120;53.176;6.614;2023-04-03T16:45:24;2.33;;;0.90;;
52126;SDS011;38120;53.176;6.614;2023-04-03T16:47:50;4.15;;;1.30;;
52126;SDS011;38120;53.176;6.614;2023-04-03T16:50:16;4.73;;;0.90;;
52126;SDS011;38120;53.176;6.614;2023-04-03T16:52:41;3.28;;;0.85;;
52126;SDS011;38120;53.176;6.614;2023-04-03T16:55:07;4.25;;;1.35;;
52126;SDS011;38120;53.176;6.614;2023-04-03T16:57:33;3.10;;;0.95;;
52126;SDS011;38120;53.176;6.614;2023-04-03T16:59:59;2.65;;;0.93;;
52126;SDS011;38120;53.176;6.614;2023-04-03T17:02:25;8.20;;;1.83;;
52126;SDS011;38120;53.176;6.614;2023-04-03T17:04:51;2.88;;;1.15;;
52126;SDS011;38120;53.176;6.614;2023-04-03T17:09:47;1.48;;;0.85;;
52126;SDS011;38120;53.176;6.614;2023-04-03T17:12:13;2.10;;;0.60;;
52126;SDS011;38120;53.176;6.614;2023-04-03T17:14:39;5.38;;;1.17;;
52126;SDS011;38120;53.176;6.614;2023-04-03T17:17:05;4.57;;;1.33;;
52126;SDS011;38120;53.176;6.614;2023-04-03T17:19:32;1.92;;;0.77;;
52126;SDS011;38120;53.176;6.614;2023-04-03T17:24:25;3.75;;;1.05;;
52126;SDS011;38120;53.176;6.614;2023-04-03T17:26:51;2.40;;;0.82;;
52126;SDS011;38120;53.176;6.614;2023-04-03T17:29:17;3.15;;;1.10;;
52126;SDS011;38120;53.176;6.614;2023-04-03T17:31:42;2.03;;;0.97;;
52126;SDS011;38120;53.176;6.614;2023-04-03T17:34:09;2.85;;;1.75;;
52126;SDS011;38120;53.176;6.614;2023-04-03T17:36:38;5.00;;;1.45;;
52126;SDS011;38120;53.176;6.614;2023-04-03T17:41:31;4.70;;;1.20;;
52126;SDS011;38120;53.176;6.614;2023-04-03T17:43:56;4.13;;;1.17;;
52126;SDS011;38120;53.176;6.614;2023-04-03T17:46:23;3.87;;;1.23;;
52126;SDS011;38120;53.176;6.614;2023-04-03T17:48:49;4.80;;;1.30;;
52126;SDS011;38120;53.176;6.614;2023-04-03T17:51:17;5.38;;;1.40;;